RYR120 EDDC-EPWA
Flight info
| Callsign | RYR120 |
|---|---|
| Flight time | 1h 11m |
| Altitude | 31000 |
| Route | OSKAN9E OSKAN M748 OLBIK L735 GOVEN/N0463F350 L979 KELOD L980 ADVAB P150 BIMPA BIMPA6U |
| Aircraft | B738/M-ICAO/L |
Departure
| Time | 2026-04-30 19:46 |
|---|---|
| Airport | Dresden Airport (EDDC) |
Arrival
| Time | 2026-04-30 20:58 |
|---|---|
| Airport | Warsaw Chopin Airport (EPWA) |
| Time | Latitude | Longitude | Altitude | Speed | Heading |
|---|---|---|---|---|---|
| 2026-04-30 19:16 | 51.12295 | 13.75881 | 754 ft | 0 kts | 40° |
| 2026-04-30 19:41 | 51.12299 | 13.75886 | 754 ft | 2 kts | 41° |
| 2026-04-30 19:41 | 51.12312 | 13.75926 | 755 ft | 5 kts | 75° |
| 2026-04-30 19:41 | 51.12330 | 13.75994 | 757 ft | 8 kts | 59° |
| 2026-04-30 19:41 | 51.12388 | 13.76064 | 756 ft | 11 kts | 34° |
| 2026-04-30 19:42 | 51.12445 | 13.76139 | 757 ft | 9 kts | 43° |
| 2026-04-30 19:42 | 51.12497 | 13.76191 | 757 ft | 7 kts | 1° |
| 2026-04-30 19:42 | 51.12537 | 13.76129 | 756 ft | 9 kts | 308° |
| 2026-04-30 19:42 | 51.12536 | 13.76040 | 754 ft | 9 kts | 221° |
| 2026-04-30 19:43 | 51.12487 | 13.75975 | 754 ft | 8 kts | 221° |
| 2026-04-30 19:43 | 51.12445 | 13.75916 | 755 ft | 8 kts | 220° |
| 2026-04-30 19:43 | 51.12393 | 13.75846 | 754 ft | 11 kts | 221° |
| 2026-04-30 19:44 | 51.12404 | 13.75629 | 750 ft | 0 kts | 292° |
| 2026-04-30 19:44 | 51.12408 | 13.75614 | 750 ft | 5 kts | 294° |
| 2026-04-30 19:45 | 51.12451 | 13.75524 | 747 ft | 14 kts | 319° |
| 2026-04-30 19:45 | 51.12535 | 13.75563 | 749 ft | 14 kts | 42° |
| 2026-04-30 19:45 | 51.12664 | 13.75738 | 751 ft | 47 kts | 42° |
| 2026-04-30 19:45 | 51.13144 | 13.76400 | 735 ft | 133 kts | 41° |
| 2026-04-30 19:46 | 51.14009 | 13.77595 | 895 ft | 185 kts | 42° |
| 2026-04-30 19:46 | 51.14879 | 13.78861 | 2171 ft | 169 kts | 43° |
| 2026-04-30 19:46 | 51.15701 | 13.80044 | 3168 ft | 161 kts | 41° |
| 2026-04-30 19:46 | 51.16591 | 13.81267 | 3521 ft | 178 kts | 40° |
| 2026-04-30 19:47 | 51.17541 | 13.82555 | 4006 ft | 186 kts | 41° |
| 2026-04-30 19:47 | 51.18214 | 13.83486 | 4191 ft | 201 kts | 40° |
| 2026-04-30 19:47 | 51.19928 | 13.84930 | 4696 ft | 227 kts | 11° |
| 2026-04-30 19:47 | 51.21561 | 13.84847 | 5183 ft | 245 kts | 355° |
| 2026-04-30 19:48 | 51.23288 | 13.84427 | 5712 ft | 257 kts | 355° |
| 2026-04-30 19:48 | 51.25052 | 13.84036 | 6510 ft | 258 kts | 356° |
| 2026-04-30 19:48 | 51.26828 | 13.83712 | 7184 ft | 263 kts | 358° |
| 2026-04-30 19:48 | 51.28675 | 13.83409 | 7395 ft | 268 kts | 358° |
| 2026-04-30 19:49 | 51.30502 | 13.83075 | 7414 ft | 266 kts | 354° |
| 2026-04-30 19:49 | 51.33846 | 13.80307 | 8860 ft | 280 kts | 324° |
| 2026-04-30 19:49 | 51.35308 | 13.78172 | 9567 ft | 285 kts | 322° |
| 2026-04-30 19:50 | 51.36760 | 13.76018 | 10349 ft | 287 kts | 323° |
| 2026-04-30 19:50 | 51.38240 | 13.73875 | 10913 ft | 298 kts | 324° |
| 2026-04-30 19:50 | 51.39824 | 13.71636 | 11398 ft | 311 kts | 324° |
| 2026-04-30 19:50 | 51.41485 | 13.69308 | 11824 ft | 326 kts | 324° |
| 2026-04-30 19:51 | 51.43218 | 13.66882 | 12212 ft | 342 kts | 324° |
| 2026-04-30 19:51 | 51.45045 | 13.64318 | 12660 ft | 356 kts | 324° |
| 2026-04-30 19:51 | 51.46904 | 13.61693 | 13440 ft | 359 kts | 324° |
| 2026-04-30 19:51 | 51.48787 | 13.59024 | 14174 ft | 364 kts | 324° |
| 2026-04-30 19:52 | 51.50713 | 13.56309 | 14494 ft | 376 kts | 324° |
| 2026-04-30 19:52 | 51.52647 | 13.53568 | 15577 ft | 370 kts | 325° |
| 2026-04-30 19:52 | 51.54613 | 13.50953 | 16368 ft | 371 kts | 329° |
| 2026-04-30 19:52 | 51.56788 | 13.48855 | 17056 ft | 366 kts | 343° |
| 2026-04-30 19:53 | 51.59193 | 13.47759 | 17814 ft | 359 kts | 357° |
| 2026-04-30 19:53 | 51.61668 | 13.47517 | 18562 ft | 356 kts | 6° |
| 2026-04-30 19:53 | 51.64115 | 13.47767 | 19205 ft | 357 kts | 12° |
| 2026-04-30 19:53 | 51.66507 | 13.48709 | 19927 ft | 355 kts | 24° |
| 2026-04-30 19:54 | 51.68692 | 13.50469 | 20643 ft | 354 kts | 35° |
| 2026-04-30 19:54 | 51.70595 | 13.52932 | 21279 ft | 356 kts | 45° |
| 2026-04-30 19:54 | 51.72239 | 13.55942 | 21966 ft | 359 kts | 51° |
| 2026-04-30 19:54 | 51.73630 | 13.59308 | 22521 ft | 365 kts | 59° |
| 2026-04-30 19:55 | 51.74763 | 13.62950 | 23226 ft | 367 kts | 63° |
| 2026-04-30 19:55 | 51.75809 | 13.66759 | 23721 ft | 374 kts | 64° |
| 2026-04-30 19:55 | 51.76828 | 13.70587 | 24349 ft | 375 kts | 64° |
| 2026-04-30 19:55 | 51.77857 | 13.74420 | 24951 ft | 377 kts | 63° |
| 2026-04-30 19:56 | 51.78925 | 13.78335 | 25489 ft | 381 kts | 63° |
| 2026-04-30 19:56 | 51.79996 | 13.82214 | 26024 ft | 384 kts | 63° |
| 2026-04-30 19:56 | 51.81086 | 13.86130 | 26568 ft | 386 kts | 63° |
| 2026-04-30 19:56 | 51.82194 | 13.90099 | 27123 ft | 388 kts | 63° |
| 2026-04-30 19:57 | 51.83302 | 13.94063 | 27579 ft | 392 kts | 63° |
| 2026-04-30 19:57 | 51.84435 | 13.98102 | 28084 ft | 394 kts | 62° |
| 2026-04-30 19:57 | 51.85571 | 14.02150 | 28544 ft | 397 kts | 62° |
| 2026-04-30 19:57 | 51.86699 | 14.06175 | 28983 ft | 401 kts | 62° |
| 2026-04-30 19:58 | 51.87851 | 14.10302 | 29435 ft | 403 kts | 62° |
| 2026-04-30 19:58 | 51.89006 | 14.14443 | 29843 ft | 406 kts | 62° |
| 2026-04-30 19:58 | 51.90173 | 14.18633 | 30299 ft | 408 kts | 62° |
| 2026-04-30 19:58 | 51.91334 | 14.22809 | 30655 ft | 412 kts | 62° |
| 2026-04-30 19:59 | 51.92509 | 14.27048 | 31080 ft | 413 kts | 62° |
| 2026-04-30 19:59 | 51.93683 | 14.31288 | 31376 ft | 417 kts | 62° |
| 2026-04-30 20:00 | 51.97240 | 14.44176 | 31407 ft | 411 kts | 62° |
| 2026-04-30 20:00 | 51.99583 | 14.52710 | 31406 ft | 414 kts | 62° |
| 2026-04-30 20:01 | 52.02640 | 14.65711 | 31412 ft | 418 kts | 73° |
| 2026-04-30 20:01 | 52.03516 | 14.75088 | 31416 ft | 422 kts | 78° |
| 2026-04-30 20:02 | 52.04562 | 14.89227 | 31419 ft | 421 kts | 77° |
| 2026-04-30 20:03 | 52.05702 | 15.03260 | 31412 ft | 418 kts | 77° |
| 2026-04-30 20:03 | 52.06495 | 15.12560 | 31401 ft | 418 kts | 76° |
| 2026-04-30 20:04 | 52.07300 | 15.21948 | 31392 ft | 417 kts | 76° |
| 2026-04-30 20:05 | 52.08493 | 15.35968 | 31390 ft | 417 kts | 76° |
| 2026-04-30 20:05 | 52.09665 | 15.49952 | 31391 ft | 416 kts | 76° |
| 2026-04-30 20:06 | 52.10346 | 15.59277 | 31390 ft | 418 kts | 80° |
| 2026-04-30 20:06 | 52.10307 | 15.68764 | 31388 ft | 423 kts | 86° |
| 2026-04-30 20:07 | 52.09992 | 15.78336 | 31396 ft | 422 kts | 86° |
| 2026-04-30 20:08 | 52.09569 | 15.92635 | 31403 ft | 422 kts | 85° |
| 2026-04-30 20:08 | 52.09323 | 16.02154 | 31401 ft | 422 kts | 85° |
| 2026-04-30 20:09 | 52.09081 | 16.11665 | 31399 ft | 421 kts | 85° |
| 2026-04-30 20:09 | 52.08721 | 16.25844 | 31393 ft | 421 kts | 85° |
| 2026-04-30 20:10 | 52.08349 | 16.39785 | 31388 ft | 418 kts | 85° |
| 2026-04-30 20:11 | 52.07956 | 16.53923 | 31383 ft | 417 kts | 84° |
| 2026-04-30 20:11 | 52.07689 | 16.63300 | 31382 ft | 418 kts | 84° |
| 2026-04-30 20:12 | 52.07270 | 16.77414 | 31371 ft | 418 kts | 85° |
| 2026-04-30 20:13 | 52.06979 | 16.86778 | 31362 ft | 417 kts | 85° |
| 2026-04-30 20:13 | 52.06681 | 16.96256 | 31359 ft | 417 kts | 85° |
| 2026-04-30 20:14 | 52.06377 | 17.05626 | 31356 ft | 417 kts | 85° |
| 2026-04-30 20:14 | 52.06068 | 17.14965 | 31367 ft | 415 kts | 85° |
| 2026-04-30 20:15 | 52.05750 | 17.24325 | 31372 ft | 415 kts | 85° |
| 2026-04-30 20:15 | 52.05423 | 17.33683 | 31365 ft | 413 kts | 85° |
| 2026-04-30 20:16 | 52.05096 | 17.43009 | 31369 ft | 416 kts | 85° |
| 2026-04-30 20:16 | 52.04758 | 17.52283 | 31363 ft | 411 kts | 85° |
| 2026-04-30 20:17 | 52.04419 | 17.61592 | 31360 ft | 412 kts | 85° |
| 2026-04-30 20:17 | 52.04068 | 17.70885 | 31371 ft | 413 kts | 86° |
| 2026-04-30 20:18 | 52.03706 | 17.80145 | 31372 ft | 413 kts | 85° |
| 2026-04-30 20:18 | 52.03339 | 17.89425 | 31376 ft | 410 kts | 85° |
| 2026-04-30 20:19 | 52.02967 | 17.98665 | 31374 ft | 412 kts | 85° |
| 2026-04-30 20:19 | 52.02590 | 18.07917 | 31374 ft | 411 kts | 85° |
| 2026-04-30 20:20 | 52.02199 | 18.17142 | 31370 ft | 409 kts | 85° |
| 2026-04-30 20:20 | 52.01807 | 18.26317 | 31372 ft | 410 kts | 85° |
| 2026-04-30 20:21 | 52.01409 | 18.35610 | 31372 ft | 408 kts | 85° |
| 2026-04-30 20:21 | 52.01004 | 18.44764 | 31373 ft | 408 kts | 85° |
| 2026-04-30 20:22 | 52.00594 | 18.53973 | 31370 ft | 409 kts | 85° |
| 2026-04-30 20:22 | 52.00180 | 18.63128 | 31373 ft | 410 kts | 85° |
| 2026-04-30 20:23 | 51.99752 | 18.72331 | 31374 ft | 409 kts | 85° |
| 2026-04-30 20:23 | 51.99540 | 18.76882 | 31202 ft | 410 kts | 85° |
| 2026-04-30 20:23 | 51.99318 | 18.81558 | 30948 ft | 409 kts | 86° |
| 2026-04-30 20:23 | 51.99095 | 18.86108 | 30709 ft | 407 kts | 86° |
| 2026-04-30 20:24 | 51.98872 | 18.90719 | 30444 ft | 410 kts | 86° |
| 2026-04-30 20:24 | 51.98649 | 18.95335 | 30177 ft | 413 kts | 85° |
| 2026-04-30 20:24 | 51.98420 | 18.99993 | 29911 ft | 412 kts | 85° |
| 2026-04-30 20:24 | 51.98189 | 19.04638 | 29639 ft | 413 kts | 86° |
| 2026-04-30 20:25 | 51.97726 | 19.13944 | 29117 ft | 416 kts | 86° |
| 2026-04-30 20:25 | 51.97489 | 19.18562 | 28856 ft | 414 kts | 86° |
| 2026-04-30 20:26 | 51.97015 | 19.27839 | 28333 ft | 417 kts | 86° |
| 2026-04-30 20:26 | 51.96527 | 19.37188 | 27599 ft | 414 kts | 86° |
| 2026-04-30 20:26 | 51.96279 | 19.41758 | 26676 ft | 411 kts | 86° |
| 2026-04-30 20:27 | 51.95790 | 19.50903 | 24808 ft | 416 kts | 86° |
| 2026-04-30 20:27 | 51.95298 | 19.60034 | 24782 ft | 404 kts | 86° |
| 2026-04-30 20:28 | 51.94809 | 19.69280 | 24678 ft | 410 kts | 87° |
| 2026-04-30 20:28 | 51.94302 | 19.78258 | 22296 ft | 406 kts | 88° |
| 2026-04-30 20:29 | 51.93793 | 19.87052 | 20745 ft | 379 kts | 88° |
| 2026-04-30 20:30 | 51.93092 | 19.99180 | 18550 ft | 349 kts | 88° |
| 2026-04-30 20:30 | 51.92472 | 20.10108 | 17194 ft | 313 kts | 88° |
| 2026-04-30 20:31 | 51.91871 | 20.20749 | 15485 ft | 318 kts | 88° |
| 2026-04-30 20:32 | 51.91224 | 20.31367 | 13815 ft | 316 kts | 89° |
| 2026-04-30 20:32 | 51.90803 | 20.38405 | 12694 ft | 316 kts | 89° |
| 2026-04-30 20:33 | 51.90592 | 20.41902 | 12186 ft | 313 kts | 90° |
| 2026-04-30 20:33 | 51.90318 | 20.48778 | 11540 ft | 294 kts | 79° |
| 2026-04-30 20:33 | 51.90664 | 20.51966 | 11288 ft | 288 kts | 71° |
| 2026-04-30 20:34 | 51.91554 | 20.58071 | 10648 ft | 266 kts | 72° |
| 2026-04-30 20:34 | 51.92188 | 20.63789 | 9685 ft | 258 kts | 75° |
| 2026-04-30 20:35 | 51.92470 | 20.66616 | 9164 ft | 256 kts | 76° |
| 2026-04-30 20:35 | 51.92751 | 20.69465 | 8585 ft | 256 kts | 76° |
| 2026-04-30 20:35 | 51.93306 | 20.75065 | 7858 ft | 251 kts | 75° |
| 2026-04-30 20:36 | 51.93581 | 20.77860 | 7428 ft | 252 kts | 76° |
| 2026-04-30 20:36 | 51.93853 | 20.80635 | 7057 ft | 252 kts | 76° |
| 2026-04-30 20:36 | 51.94399 | 20.86221 | 6237 ft | 254 kts | 76° |
| 2026-04-30 20:37 | 51.94766 | 20.88989 | 5923 ft | 247 kts | 64° |
| 2026-04-30 20:37 | 51.95520 | 20.91398 | 5687 ft | 231 kts | 54° |
| 2026-04-30 20:37 | 51.96337 | 20.93555 | 5508 ft | 219 kts | 55° |
| 2026-04-30 20:37 | 51.97059 | 20.95663 | 5268 ft | 211 kts | 58° |
| 2026-04-30 20:38 | 51.97696 | 20.97727 | 5020 ft | 204 kts | 59° |
| 2026-04-30 20:38 | 51.98292 | 20.99735 | 4871 ft | 193 kts | 59° |
| 2026-04-30 20:38 | 51.98863 | 21.01649 | 4739 ft | 183 kts | 59° |
| 2026-04-30 20:39 | 51.99977 | 21.05345 | 4159 ft | 181 kts | 59° |
| 2026-04-30 20:39 | 52.00531 | 21.07094 | 4038 ft | 169 kts | 53° |
| 2026-04-30 20:39 | 52.01343 | 21.08368 | 3726 ft | 165 kts | 21° |
| 2026-04-30 20:40 | 52.03617 | 21.08106 | 2997 ft | 170 kts | 335° |
| 2026-04-30 20:40 | 52.04573 | 21.07016 | 2974 ft | 169 kts | 324° |
| 2026-04-30 20:40 | 52.05551 | 21.05909 | 2923 ft | 177 kts | 332° |
| 2026-04-30 20:41 | 52.07797 | 21.04142 | 2417 ft | 170 kts | 335° |
| 2026-04-30 20:41 | 52.08829 | 21.03302 | 2462 ft | 168 kts | 334° |
| 2026-04-30 20:41 | 52.09903 | 21.02412 | 2267 ft | 177 kts | 334° |
| 2026-04-30 20:41 | 52.11005 | 21.01480 | 1680 ft | 187 kts | 333° |
| 2026-04-30 20:42 | 52.12160 | 21.00495 | 1396 ft | 176 kts | 333° |
| 2026-04-30 20:42 | 52.13152 | 20.99649 | 1518 ft | 147 kts | 333° |
| 2026-04-30 20:42 | 52.15044 | 20.98040 | 1797 ft | 173 kts | 334° |
| 2026-04-30 20:43 | 52.16177 | 20.97148 | 2237 ft | 194 kts | 334° |
| 2026-04-30 20:43 | 52.17394 | 20.96032 | 2520 ft | 208 kts | 330° |
| 2026-04-30 20:43 | 52.18668 | 20.94827 | 2875 ft | 217 kts | 332° |
| 2026-04-30 20:44 | 52.21510 | 20.92908 | 2651 ft | 221 kts | 347° |
| 2026-04-30 20:44 | 52.22977 | 20.92524 | 2677 ft | 205 kts | 357° |
| 2026-04-30 20:44 | 52.25248 | 20.94516 | 2775 ft | 215 kts | 68° |
| 2026-04-30 20:45 | 52.25460 | 20.99581 | 3081 ft | 226 kts | 87° |
| 2026-04-30 20:45 | 52.25443 | 21.02211 | 3308 ft | 232 kts | 87° |
| 2026-04-30 20:45 | 52.25417 | 21.04807 | 3555 ft | 230 kts | 87° |
| 2026-04-30 20:46 | 52.24749 | 21.12523 | 3972 ft | 242 kts | 128° |
| 2026-04-30 20:46 | 52.23383 | 21.14103 | 4005 ft | 244 kts | 154° |
| 2026-04-30 20:47 | 52.20204 | 21.16191 | 3971 ft | 245 kts | 157° |
| 2026-04-30 20:47 | 52.18622 | 21.17201 | 3975 ft | 244 kts | 157° |
| 2026-04-30 20:48 | 52.15435 | 21.19225 | 3985 ft | 245 kts | 157° |
| 2026-04-30 20:48 | 52.13855 | 21.20229 | 3980 ft | 245 kts | 157° |
| 2026-04-30 20:48 | 52.12270 | 21.21240 | 3981 ft | 246 kts | 157° |
| 2026-04-30 20:48 | 52.10686 | 21.22253 | 3989 ft | 247 kts | 157° |
| 2026-04-30 20:49 | 52.09091 | 21.23277 | 3994 ft | 246 kts | 157° |
| 2026-04-30 20:49 | 52.07502 | 21.24300 | 3988 ft | 246 kts | 156° |
| 2026-04-30 20:49 | 52.05899 | 21.25330 | 3988 ft | 247 kts | 157° |
| 2026-04-30 20:50 | 52.02704 | 21.27371 | 3996 ft | 247 kts | 157° |
| 2026-04-30 20:50 | 52.01102 | 21.28389 | 3996 ft | 245 kts | 157° |
| 2026-04-30 20:50 | 51.99526 | 21.29390 | 3994 ft | 245 kts | 157° |
| 2026-04-30 20:50 | 51.97889 | 21.30145 | 3976 ft | 244 kts | 175° |
| 2026-04-30 20:51 | 51.96307 | 21.29593 | 3979 ft | 228 kts | 217° |
| 2026-04-30 20:51 | 51.94614 | 21.25612 | 3997 ft | 217 kts | 248° |
| 2026-04-30 20:51 | 51.94301 | 21.23284 | 3966 ft | 207 kts | 285° |
| 2026-04-30 20:52 | 51.94870 | 21.21229 | 3919 ft | 211 kts | 311° |
| 2026-04-30 20:52 | 51.95954 | 21.19357 | 3445 ft | 238 kts | 317° |
| 2026-04-30 20:52 | 51.98159 | 21.15653 | 2961 ft | 214 kts | 315° |
| 2026-04-30 20:53 | 51.99113 | 21.13960 | 2971 ft | 193 kts | 315° |
| 2026-04-30 20:53 | 51.99960 | 21.12385 | 3010 ft | 176 kts | 313° |
| 2026-04-30 20:53 | 52.00796 | 21.10979 | 2969 ft | 172 kts | 322° |
| 2026-04-30 20:54 | 52.02783 | 21.08828 | 2976 ft | 172 kts | 332° |
| 2026-04-30 20:54 | 52.03822 | 21.07865 | 2966 ft | 172 kts | 333° |
| 2026-04-30 20:54 | 52.04878 | 21.06920 | 2794 ft | 177 kts | 333° |
| 2026-04-30 20:55 | 52.07000 | 21.05052 | 2293 ft | 168 kts | 333° |
| 2026-04-30 20:55 | 52.08043 | 21.04144 | 2056 ft | 172 kts | 333° |
| 2026-04-30 20:55 | 52.09069 | 21.03253 | 1801 ft | 160 kts | 332° |
| 2026-04-30 20:56 | 52.10884 | 21.01671 | 1408 ft | 143 kts | 332° |
| 2026-04-30 20:56 | 52.11762 | 21.00908 | 1219 ft | 144 kts | 332° |
| 2026-04-30 20:56 | 52.13548 | 20.99356 | 836 ft | 146 kts | 332° |
| 2026-04-30 20:57 | 52.14455 | 20.98575 | 597 ft | 149 kts | 331° |
| 2026-04-30 20:57 | 52.15363 | 20.97771 | 413 ft | 148 kts | 331° |
| 2026-04-30 20:57 | 52.16208 | 20.97036 | 337 ft | 110 kts | 330° |
| 2026-04-30 20:58 | 52.16962 | 20.96516 | 333 ft | 9 kts | 358° |
| 2026-04-30 20:58 | 52.16995 | 20.96517 | 333 ft | 3 kts | 1° |
| 2026-04-30 20:58 | 52.17048 | 20.96519 | 333 ft | 3 kts | 8° |
| 2026-04-30 20:59 | 52.17062 | 20.96525 | 333 ft | 7 kts | 20° |
| 2026-04-30 21:00 | 52.17154 | 20.96769 | 334 ft | 14 kts | 63° |
| 2026-04-30 21:00 | 52.17019 | 20.96966 | 334 ft | 16 kts | 151° |
| 2026-04-30 21:01 | 52.16911 | 20.97050 | 335 ft | 4 kts | 200° |
| 2026-04-30 21:01 | 52.16896 | 20.97016 | 334 ft | 0 kts | 238° |